sensor_id;sensor_type;location;lat;lon;timestamp;P1;durP1;ratioP1;P2;durP2;ratioP2
5040;SDS011;2539;52.568;13.364;2023-11-21T00:02:10;26.10;;;15.23;;
5040;SDS011;2539;52.568;13.364;2023-11-21T00:04:36;27.90;;;16.03;;
5040;SDS011;2539;52.568;13.364;2023-11-21T00:07:03;39.00;;;18.30;;
5040;SDS011;2539;52.568;13.364;2023-11-21T00:09:32;34.13;;;17.80;;
5040;SDS011;2539;52.568;13.364;2023-11-21T00:11:58;34.50;;;17.13;;
5040;SDS011;2539;52.568;13.364;2023-11-21T00:14:28;33.03;;;16.37;;
5040;SDS011;2539;52.568;13.364;2023-11-21T00:16:54;44.33;;;24.10;;
5040;SDS011;2539;52.568;13.364;2023-11-21T00:19:20;42.23;;;19.40;;
5040;SDS011;2539;52.568;13.364;2023-11-21T00:21:46;33.97;;;18.23;;
5040;SDS011;2539;52.568;13.364;2023-11-21T00:24:11;38.63;;;18.63;;
5040;SDS011;2539;52.568;13.364;2023-11-21T00:26:39;36.97;;;17.37;;
5040;SDS011;2539;52.568;13.364;2023-11-21T00:29:05;37.83;;;16.80;;
5040;SDS011;2539;52.568;13.364;2023-11-21T00:31:36;36.83;;;18.20;;
5040;SDS011;2539;52.568;13.364;2023-11-21T00:34:03;40.33;;;17.53;;
5040;SDS011;2539;52.568;13.364;2023-11-21T00:36:32;45.20;;;19.50;;
5040;SDS011;2539;52.568;13.364;2023-11-21T00:38:58;41.00;;;20.83;;
5040;SDS011;2539;52.568;13.364;2023-11-21T00:41:25;51.10;;;21.57;;
5040;SDS011;2539;52.568;13.364;2023-11-21T00:43:54;51.10;;;23.20;;
5040;SDS011;2539;52.568;13.364;2023-11-21T00:46:20;50.97;;;22.63;;
5040;SDS011;2539;52.568;13.364;2023-11-21T00:48:47;53.60;;;23.90;;
5040;SDS011;2539;52.568;13.364;2023-11-21T00:51:13;67.10;;;25.87;;
5040;SDS011;2539;52.568;13.364;2023-11-21T00:53:38;55.93;;;25.27;;
5040;SDS011;2539;52.568;13.364;2023-11-21T00:56:04;68.60;;;26.60;;
5040;SDS011;2539;52.568;13.364;2023-11-21T00:58:30;57.00;;;23.80;;
5040;SDS011;2539;52.568;13.364;2023-11-21T01:00:57;52.50;;;23.30;;
5040;SDS011;2539;52.568;13.364;2023-11-21T01:03:32;62.93;;;26.20;;
5040;SDS011;2539;52.568;13.364;2023-11-21T01:05:57;63.67;;;25.33;;
5040;SDS011;2539;52.568;13.364;2023-11-21T01:08:24;55.33;;;24.13;;
5040;SDS011;2539;52.568;13.364;2023-11-21T01:10:50;55.23;;;23.33;;
5040;SDS011;2539;52.568;13.364;2023-11-21T01:13:15;51.30;;;21.40;;
5040;SDS011;2539;52.568;13.364;2023-11-21T01:15:42;47.23;;;21.80;;
5040;SDS011;2539;52.568;13.364;2023-11-21T01:18:08;51.27;;;21.87;;
5040;SDS011;2539;52.568;13.364;2023-11-21T01:20:34;46.07;;;21.63;;
5040;SDS011;2539;52.568;13.364;2023-11-21T01:23:00;56.27;;;21.13;;
5040;SDS011;2539;52.568;13.364;2023-11-21T01:25:26;54.33;;;22.37;;
5040;SDS011;2539;52.568;13.364;2023-11-21T01:27:51;54.43;;;19.80;;
5040;SDS011;2539;52.568;13.364;2023-11-21T01:30:17;54.00;;;20.43;;
5040;SDS011;2539;52.568;13.364;2023-11-21T01:32:49;46.67;;;22.67;;
5040;SDS011;2539;52.568;13.364;2023-11-21T01:35:16;54.50;;;22.43;;
5040;SDS011;2539;52.568;13.364;2023-11-21T01:37:42;43.27;;;19.20;;
5040;SDS011;2539;52.568;13.364;2023-11-21T01:40:08;49.27;;;18.57;;
5040;SDS011;2539;52.568;13.364;2023-11-21T01:42:39;54.40;;;20.13;;
5040;SDS011;2539;52.568;13.364;2023-11-21T01:45:06;44.90;;;19.30;;
5040;SDS011;2539;52.568;13.364;2023-11-21T01:47:33;36.37;;;18.07;;
5040;SDS011;2539;52.568;13.364;2023-11-21T01:50:00;49.03;;;18.33;;
5040;SDS011;2539;52.568;13.364;2023-11-21T01:52:26;43.90;;;17.90;;
5040;SDS011;2539;52.568;13.364;2023-11-21T01:54:53;39.87;;;17.50;;
5040;SDS011;2539;52.568;13.364;2023-11-21T01:57:19;43.10;;;18.00;;
5040;SDS011;2539;52.568;13.364;2023-11-21T01:59:45;35.03;;;17.50;;
5040;SDS011;2539;52.568;13.364;2023-11-21T02:02:13;38.40;;;16.27;;
5040;SDS011;2539;52.568;13.364;2023-11-21T02:04:40;32.87;;;14.33;;
5040;SDS011;2539;52.568;13.364;2023-11-21T02:07:07;32.77;;;13.63;;
5040;SDS011;2539;52.568;13.364;2023-11-21T02:09:33;14.23;;;10.50;;
5040;SDS011;2539;52.568;13.364;2023-11-21T02:12:00;18.17;;;9.77;;
5040;SDS011;2539;52.568;13.364;2023-11-21T02:14:28;20.33;;;10.80;;
5040;SDS011;2539;52.568;13.364;2023-11-21T02:16:55;15.07;;;10.77;;
5040;SDS011;2539;52.568;13.364;2023-11-21T02:19:23;15.63;;;10.90;;
5040;SDS011;2539;52.568;13.364;2023-11-21T02:21:51;13.50;;;9.83;;
5040;SDS011;2539;52.568;13.364;2023-11-21T02:24:19;15.60;;;11.13;;
5040;SDS011;2539;52.568;13.364;2023-11-21T02:26:49;18.47;;;11.47;;
5040;SDS011;2539;52.568;13.364;2023-11-21T02:29:19;14.40;;;10.83;;
5040;SDS011;2539;52.568;13.364;2023-11-21T02:31:48;14.03;;;11.30;;
5040;SDS011;2539;52.568;13.364;2023-11-21T02:34:20;15.33;;;11.73;;
5040;SDS011;2539;52.568;13.364;2023-11-21T02:36:47;14.37;;;12.00;;
5040;SDS011;2539;52.568;13.364;2023-11-21T02:39:17;17.20;;;11.40;;
5040;SDS011;2539;52.568;13.364;2023-11-21T02:41:43;15.10;;;12.37;;
5040;SDS011;2539;52.568;13.364;2023-11-21T02:44:09;13.33;;;11.10;;
5040;SDS011;2539;52.568;13.364;2023-11-21T02:46:35;13.73;;;10.40;;
5040;SDS011;2539;52.568;13.364;2023-11-21T02:49:02;14.83;;;10.97;;
5040;SDS011;2539;52.568;13.364;2023-11-21T02:51:29;17.50;;;10.80;;
5040;SDS011;2539;52.568;13.364;2023-11-21T02:53:56;12.20;;;10.47;;
5040;SDS011;2539;52.568;13.364;2023-11-21T02:56:25;12.43;;;10.30;;
5040;SDS011;2539;52.568;13.364;2023-11-21T02:58:52;13.07;;;10.97;;
5040;SDS011;2539;52.568;13.364;2023-11-21T03:01:21;12.77;;;10.53;;
5040;SDS011;2539;52.568;13.364;2023-11-21T03:03:47;12.27;;;9.80;;
5040;SDS011;2539;52.568;13.364;2023-11-21T03:06:16;10.57;;;8.87;;
5040;SDS011;2539;52.568;13.364;2023-11-21T03:08:43;13.37;;;11.00;;
5040;SDS011;2539;52.568;13.364;2023-11-21T03:11:08;11.07;;;9.43;;
5040;SDS011;2539;52.568;13.364;2023-11-21T03:13:35;11.10;;;8.70;;
5040;SDS011;2539;52.568;13.364;2023-11-21T03:16:01;11.60;;;9.90;;
5040;SDS011;2539;52.568;13.364;2023-11-21T03:18:27;12.87;;;9.67;;
5040;SDS011;2539;52.568;13.364;2023-11-21T03:20:55;12.30;;;10.00;;
5040;SDS011;2539;52.568;13.364;2023-11-21T03:23:21;16.63;;;11.70;;
5040;SDS011;2539;52.568;13.364;2023-11-21T03:25:47;12.17;;;9.60;;
5040;SDS011;2539;52.568;13.364;2023-11-21T03:28:14;11.63;;;9.97;;
5040;SDS011;2539;52.568;13.364;2023-11-21T03:30:39;11.23;;;10.00;;
5040;SDS011;2539;52.568;13.364;2023-11-21T03:33:05;12.97;;;10.03;;
5040;SDS011;2539;52.568;13.364;2023-11-21T03:35:30;11.80;;;10.07;;
5040;SDS011;2539;52.568;13.364;2023-11-21T03:37:57;17.93;;;10.77;;
5040;SDS011;2539;52.568;13.364;2023-11-21T03:40:23;13.93;;;11.00;;
5040;SDS011;2539;52.568;13.364;2023-11-21T03:42:49;13.67;;;10.70;;
5040;SDS011;2539;52.568;13.364;2023-11-21T03:45:16;11.17;;;9.93;;
5040;SDS011;2539;52.568;13.364;2023-11-21T03:47:42;13.20;;;10.07;;
5040;SDS011;2539;52.568;13.364;2023-11-21T03:50:09;15.80;;;11.57;;
5040;SDS011;2539;52.568;13.364;2023-11-21T03:52:37;12.37;;;11.07;;
5040;SDS011;2539;52.568;13.364;2023-11-21T03:55:03;13.03;;;10.20;;
5040;SDS011;2539;52.568;13.364;2023-11-21T03:57:30;12.93;;;10.80;;
5040;SDS011;2539;52.568;13.364;2023-11-21T03:59:56;12.27;;;10.90;;
5040;SDS011;2539;52.568;13.364;2023-11-21T04:02:22;12.30;;;9.53;;
5040;SDS011;2539;52.568;13.364;2023-11-21T04:04:51;12.80;;;10.33;;
5040;SDS011;2539;52.568;13.364;2023-11-21T04:07:17;12.30;;;10.30;;
5040;SDS011;2539;52.568;13.364;2023-11-21T04:09:44;12.97;;;10.87;;
5040;SDS011;2539;52.568;13.364;2023-11-21T04:12:10;15.30;;;10.87;;
5040;SDS011;2539;52.568;13.364;2023-11-21T04:14:37;12.67;;;10.27;;
5040;SDS011;2539;52.568;13.364;2023-11-21T04:17:04;15.27;;;11.30;;
5040;SDS011;2539;52.568;13.364;2023-11-21T04:19:30;13.83;;;11.30;;
5040;SDS011;2539;52.568;13.364;2023-11-21T04:21:57;16.50;;;12.50;;
5040;SDS011;2539;52.568;13.364;2023-11-21T04:24:23;12.67;;;10.63;;
5040;SDS011;2539;52.568;13.364;2023-11-21T04:26:49;15.03;;;11.97;;
5040;SDS011;2539;52.568;13.364;2023-11-21T04:29:16;14.87;;;11.97;;
5040;SDS011;2539;52.568;13.364;2023-11-21T04:31:42;14.47;;;11.47;;
5040;SDS011;2539;52.568;13.364;2023-11-21T04:34:08;14.50;;;11.57;;
5040;SDS011;2539;52.568;13.364;2023-11-21T04:36:34;15.57;;;10.70;;
5040;SDS011;2539;52.568;13.364;2023-11-21T04:39:01;11.93;;;10.10;;
5040;SDS011;2539;52.568;13.364;2023-11-21T04:41:27;11.40;;;9.10;;
5040;SDS011;2539;52.568;13.364;2023-11-21T04:43:53;9.17;;;7.10;;
5040;SDS011;2539;52.568;13.364;2023-11-21T04:46:19;10.73;;;9.33;;
5040;SDS011;2539;52.568;13.364;2023-11-21T04:48:46;10.10;;;8.43;;
5040;SDS011;2539;52.568;13.364;2023-11-21T04:51:12;10.23;;;9.00;;
5040;SDS011;2539;52.568;13.364;2023-11-21T04:53:38;11.10;;;8.83;;
5040;SDS011;2539;52.568;13.364;2023-11-21T04:56:05;9.80;;;8.80;;
5040;SDS011;2539;52.568;13.364;2023-11-21T04:58:31;9.43;;;7.53;;
5040;SDS011;2539;52.568;13.364;2023-11-21T05:00:58;5.97;;;5.00;;
5040;SDS011;2539;52.568;13.364;2023-11-21T05:03:25;9.30;;;8.40;;
5040;SDS011;2539;52.568;13.364;2023-11-21T05:05:51;8.47;;;7.17;;
5040;SDS011;2539;52.568;13.364;2023-11-21T05:08:18;8.60;;;7.70;;
5040;SDS011;2539;52.568;13.364;2023-11-21T05:10:45;8.23;;;6.87;;
5040;SDS011;2539;52.568;13.364;2023-11-21T05:13:12;11.83;;;7.73;;
5040;SDS011;2539;52.568;13.364;2023-11-21T05:15:38;11.00;;;7.03;;
5040;SDS011;2539;52.568;13.364;2023-11-21T05:18:05;8.83;;;7.67;;
5040;SDS011;2539;52.568;13.364;2023-11-21T05:20:32;8.07;;;7.07;;
5040;SDS011;2539;52.568;13.364;2023-11-21T05:22:58;9.63;;;7.80;;
5040;SDS011;2539;52.568;13.364;2023-11-21T05:25:25;9.47;;;8.07;;
5040;SDS011;2539;52.568;13.364;2023-11-21T05:27:51;12.93;;;8.60;;
5040;SDS011;2539;52.568;13.364;2023-11-21T05:30:18;9.40;;;8.30;;
5040;SDS011;2539;52.568;13.364;2023-11-21T05:32:45;11.10;;;8.07;;
5040;SDS011;2539;52.568;13.364;2023-11-21T05:35:12;10.10;;;8.27;;
5040;SDS011;2539;52.568;13.364;2023-11-21T05:37:41;9.70;;;7.97;;
5040;SDS011;2539;52.568;13.364;2023-11-21T05:40:08;9.97;;;6.87;;
5040;SDS011;2539;52.568;13.364;2023-11-21T05:42:35;9.80;;;7.33;;
5040;SDS011;2539;52.568;13.364;2023-11-21T05:45:03;8.83;;;7.87;;
5040;SDS011;2539;52.568;13.364;2023-11-21T05:47:40;8.10;;;6.83;;
5040;SDS011;2539;52.568;13.364;2023-11-21T05:50:10;12.97;;;8.10;;
5040;SDS011;2539;52.568;13.364;2023-11-21T05:52:38;7.30;;;6.60;;
5040;SDS011;2539;52.568;13.364;2023-11-21T05:55:08;7.50;;;6.60;;
5040;SDS011;2539;52.568;13.364;2023-11-21T05:57:35;9.33;;;6.47;;
5040;SDS011;2539;52.568;13.364;2023-11-21T06:00:03;8.37;;;7.03;;
5040;SDS011;2539;52.568;13.364;2023-11-21T06:02:39;7.60;;;6.90;;
5040;SDS011;2539;52.568;13.364;2023-11-21T06:05:06;8.00;;;7.17;;
5040;SDS011;2539;52.568;13.364;2023-11-21T06:07:33;6.57;;;5.93;;
5040;SDS011;2539;52.568;13.364;2023-11-21T06:10:01;7.00;;;5.90;;
5040;SDS011;2539;52.568;13.364;2023-11-21T06:12:38;7.23;;;6.53;;
5040;SDS011;2539;52.568;13.364;2023-11-21T06:15:06;8.87;;;6.90;;
5040;SDS011;2539;52.568;13.364;2023-11-21T06:17:35;7.43;;;6.43;;
5040;SDS011;2539;52.568;13.364;2023-11-21T06:20:02;6.37;;;5.50;;
5040;SDS011;2539;52.568;13.364;2023-11-21T06:22:35;6.47;;;5.30;;
5040;SDS011;2539;52.568;13.364;2023-11-21T06:25:03;7.27;;;5.27;;
5040;SDS011;2539;52.568;13.364;2023-11-21T06:27:31;5.50;;;4.83;;
5040;SDS011;2539;52.568;13.364;2023-11-21T06:29:58;5.67;;;5.07;;
5040;SDS011;2539;52.568;13.364;2023-11-21T06:32:25;5.67;;;5.03;;
5040;SDS011;2539;52.568;13.364;2023-11-21T06:34:51;6.43;;;5.30;;
5040;SDS011;2539;52.568;13.364;2023-11-21T06:37:21;6.90;;;6.20;;
5040;SDS011;2539;52.568;13.364;2023-11-21T06:39:49;5.67;;;5.17;;
5040;SDS011;2539;52.568;13.364;2023-11-21T06:42:18;5.83;;;5.20;;
5040;SDS011;2539;52.568;13.364;2023-11-21T06:44:47;5.77;;;4.60;;
5040;SDS011;2539;52.568;13.364;2023-11-21T06:47:14;5.97;;;5.33;;
5040;SDS011;2539;52.568;13.364;2023-11-21T06:49:42;5.63;;;4.73;;
5040;SDS011;2539;52.568;13.364;2023-11-21T06:52:08;5.63;;;4.83;;
5040;SDS011;2539;52.568;13.364;2023-11-21T06:54:36;5.87;;;5.20;;
5040;SDS011;2539;52.568;13.364;2023-11-21T06:57:02;5.57;;;5.07;;
5040;SDS011;2539;52.568;13.364;2023-11-21T06:59:28;5.27;;;4.77;;
5040;SDS011;2539;52.568;13.364;2023-11-21T07:01:54;5.20;;;4.40;;
5040;SDS011;2539;52.568;13.364;2023-11-21T07:04:20;5.80;;;5.10;;
5040;SDS011;2539;52.568;13.364;2023-11-21T07:06:45;6.83;;;5.37;;
5040;SDS011;2539;52.568;13.364;2023-11-21T07:09:12;5.37;;;4.87;;
5040;SDS011;2539;52.568;13.364;2023-11-21T07:11:38;8.83;;;5.43;;
5040;SDS011;2539;52.568;13.364;2023-11-21T07:14:05;5.10;;;4.60;;
5040;SDS011;2539;52.568;13.364;2023-11-21T07:16:36;6.23;;;4.67;;
5040;SDS011;2539;52.568;13.364;2023-11-21T07:19:03;5.60;;;4.67;;
5040;SDS011;2539;52.568;13.364;2023-11-21T07:21:34;6.73;;;4.67;;
5040;SDS011;2539;52.568;13.364;2023-11-21T07:24:01;7.30;;;5.27;;
5040;SDS011;2539;52.568;13.364;2023-11-21T07:26:29;5.10;;;4.60;;
5040;SDS011;2539;52.568;13.364;2023-11-21T07:28:56;7.20;;;5.50;;
5040;SDS011;2539;52.568;13.364;2023-11-21T07:31:22;7.30;;;5.10;;
5040;SDS011;2539;52.568;13.364;2023-11-21T07:33:50;6.90;;;5.00;;
5040;SDS011;2539;52.568;13.364;2023-11-21T07:36:17;9.30;;;5.10;;
5040;SDS011;2539;52.568;13.364;2023-11-21T07:38:47;5.83;;;5.23;;
5040;SDS011;2539;52.568;13.364;2023-11-21T07:41:13;5.53;;;5.03;;
5040;SDS011;2539;52.568;13.364;2023-11-21T07:43:43;8.03;;;5.47;;
5040;SDS011;2539;52.568;13.364;2023-11-21T07:46:11;5.80;;;5.20;;
5040;SDS011;2539;52.568;13.364;2023-11-21T07:48:38;10.00;;;5.07;;
5040;SDS011;2539;52.568;13.364;2023-11-21T07:51:05;8.10;;;5.40;;
5040;SDS011;2539;52.568;13.364;2023-11-21T07:53:35;7.43;;;4.63;;
5040;SDS011;2539;52.568;13.364;2023-11-21T07:56:05;6.17;;;5.43;;
5040;SDS011;2539;52.568;13.364;2023-11-21T07:58:34;7.20;;;5.97;;
5040;SDS011;2539;52.568;13.364;2023-11-21T08:01:01;6.47;;;5.73;;
5040;SDS011;2539;52.568;13.364;2023-11-21T08:03:28;7.43;;;6.43;;
5040;SDS011;2539;52.568;13.364;2023-11-21T08:05:56;6.00;;;5.40;;
5040;SDS011;2539;52.568;13.364;2023-11-21T08:08:23;6.13;;;5.53;;
5040;SDS011;2539;52.568;13.364;2023-11-21T08:10:50;6.70;;;6.00;;
5040;SDS011;2539;52.568;13.364;2023-11-21T08:13:24;5.90;;;5.13;;
5040;SDS011;2539;52.568;13.364;2023-11-21T08:15:54;5.70;;;5.20;;
5040;SDS011;2539;52.568;13.364;2023-11-21T08:18:22;6.77;;;5.27;;
5040;SDS011;2539;52.568;13.364;2023-11-21T08:20:48;7.80;;;5.47;;
5040;SDS011;2539;52.568;13.364;2023-11-21T08:23:15;6.63;;;5.83;;
5040;SDS011;2539;52.568;13.364;2023-11-21T08:25:44;6.30;;;5.40;;
5040;SDS011;2539;52.568;13.364;2023-11-21T08:28:11;7.57;;;6.00;;
5040;SDS011;2539;52.568;13.364;2023-11-21T08:30:40;6.53;;;5.77;;
5040;SDS011;2539;52.568;13.364;2023-11-21T08:33:07;6.17;;;5.30;;
5040;SDS011;2539;52.568;13.364;2023-11-21T08:35:39;7.30;;;6.60;;
5040;SDS011;2539;52.568;13.364;2023-11-21T08:38:06;6.30;;;5.70;;
5040;SDS011;2539;52.568;13.364;2023-11-21T08:40:32;6.30;;;5.70;;
5040;SDS011;2539;52.568;13.364;2023-11-21T08:42:58;7.33;;;6.20;;
5040;SDS011;2539;52.568;13.364;2023-11-21T08:45:25;6.43;;;5.83;;
5040;SDS011;2539;52.568;13.364;2023-11-21T08:47:54;6.63;;;6.03;;
5040;SDS011;2539;52.568;13.364;2023-11-21T08:50:20;21.53;;;16.03;;
5040;SDS011;2539;52.568;13.364;2023-11-21T08:52:47;6.33;;;5.73;;
5040;SDS011;2539;52.568;13.364;2023-11-21T08:55:14;13.93;;;6.03;;
5040;SDS011;2539;52.568;13.364;2023-11-21T08:57:40;5.87;;;5.37;;
5040;SDS011;2539;52.568;13.364;2023-11-21T09:00:08;5.53;;;5.00;;
5040;SDS011;2539;52.568;13.364;2023-11-21T09:02:36;7.17;;;5.50;;
5040;SDS011;2539;52.568;13.364;2023-11-21T09:05:03;8.03;;;6.20;;
5040;SDS011;2539;52.568;13.364;2023-11-21T09:07:33;5.90;;;5.10;;
5040;SDS011;2539;52.568;13.364;2023-11-21T09:09:59;5.80;;;5.20;;
5040;SDS011;2539;52.568;13.364;2023-11-21T09:12:25;6.00;;;5.40;;
5040;SDS011;2539;52.568;13.364;2023-11-21T09:14:51;6.30;;;5.27;;
5040;SDS011;2539;52.568;13.364;2023-11-21T09:17:18;6.73;;;4.27;;
5040;SDS011;2539;52.568;13.364;2023-11-21T09:19:44;9.80;;;6.57;;
5040;SDS011;2539;52.568;13.364;2023-11-21T09:22:15;5.80;;;4.40;;
5040;SDS011;2539;52.568;13.364;2023-11-21T09:24:42;8.20;;;6.43;;
5040;SDS011;2539;52.568;13.364;2023-11-21T09:27:08;9.40;;;5.90;;
5040;SDS011;2539;52.568;13.364;2023-11-21T09:29:34;10.70;;;6.30;;
5040;SDS011;2539;52.568;13.364;2023-11-21T09:32:02;9.37;;;5.73;;
5040;SDS011;2539;52.568;13.364;2023-11-21T09:34:28;11.87;;;6.43;;
5040;SDS011;2539;52.568;13.364;2023-11-21T09:36:54;12.60;;;6.43;;
5040;SDS011;2539;52.568;13.364;2023-11-21T09:39:20;12.43;;;6.80;;
5040;SDS011;2539;52.568;13.364;2023-11-21T09:41:51;14.53;;;7.10;;
5040;SDS011;2539;52.568;13.364;2023-11-21T09:47:23;12.33;;;8.20;;
5040;SDS011;2539;52.568;13.364;2023-11-21T09:49:48;20.33;;;11.47;;
5040;SDS011;2539;52.568;13.364;2023-11-21T09:52:22;17.97;;;9.30;;
5040;SDS011;2539;52.568;13.364;2023-11-21T09:54:51;15.43;;;8.97;;
5040;SDS011;2539;52.568;13.364;2023-11-21T09:57:19;14.80;;;9.27;;
5040;SDS011;2539;52.568;13.364;2023-11-21T09:59:48;15.37;;;7.83;;
5040;SDS011;2539;52.568;13.364;2023-11-21T10:02:17;21.43;;;8.40;;
5040;SDS011;2539;52.568;13.364;2023-11-21T10:04:44;16.93;;;8.70;;
5040;SDS011;2539;52.568;13.364;2023-11-21T10:07:10;13.70;;;8.30;;
5040;SDS011;2539;52.568;13.364;2023-11-21T10:09:40;16.30;;;8.63;;
5040;SDS011;2539;52.568;13.364;2023-11-21T10:12:07;12.90;;;7.97;;
5040;SDS011;2539;52.568;13.364;2023-11-21T10:14:37;13.37;;;7.63;;
5040;SDS011;2539;52.568;13.364;2023-11-21T10:17:07;11.80;;;7.80;;
5040;SDS011;2539;52.568;13.364;2023-11-21T10:19:36;12.03;;;8.20;;
5040;SDS011;2539;52.568;13.364;2023-11-21T10:22:05;11.40;;;7.10;;
5040;SDS011;2539;52.568;13.364;2023-11-21T10:24:32;9.20;;;5.93;;
5040;SDS011;2539;52.568;13.364;2023-11-21T10:26:59;16.00;;;6.00;;
5040;SDS011;2539;52.568;13.364;2023-11-21T10:29:30;7.60;;;5.50;;
5040;SDS011;2539;52.568;13.364;2023-11-21T10:32:04;10.23;;;5.77;;
5040;SDS011;2539;52.568;13.364;2023-11-21T10:34:31;9.63;;;6.10;;
5040;SDS011;2539;52.568;13.364;2023-11-21T10:36:59;11.73;;;6.67;;
5040;SDS011;2539;52.568;13.364;2023-11-21T10:39:38;13.03;;;7.97;;
5040;SDS011;2539;52.568;13.364;2023-11-21T10:42:07;14.93;;;7.47;;
5040;SDS011;2539;52.568;13.364;2023-11-21T10:44:34;11.13;;;5.90;;
5040;SDS011;2539;52.568;13.364;2023-11-21T10:47:00;10.70;;;6.50;;
5040;SDS011;2539;52.568;13.364;2023-11-21T10:49:27;9.50;;;6.77;;
5040;SDS011;2539;52.568;13.364;2023-11-21T10:51:53;9.23;;;5.87;;
5040;SDS011;2539;52.568;13.364;2023-11-21T10:54:20;13.67;;;6.40;;
5040;SDS011;2539;52.568;13.364;2023-11-21T10:56:53;11.70;;;7.17;;
5040;SDS011;2539;52.568;13.364;2023-11-21T10:59:23;11.03;;;7.30;;
5040;SDS011;2539;52.568;13.364;2023-11-21T11:01:51;8.37;;;5.80;;
5040;SDS011;2539;52.568;13.364;2023-11-21T11:04:19;4.90;;;4.17;;
5040;SDS011;2539;52.568;13.364;2023-11-21T11:06:50;5.93;;;4.23;;
5040;SDS011;2539;52.568;13.364;2023-11-21T11:09:20;4.83;;;3.67;;
5040;SDS011;2539;52.568;13.364;2023-11-21T11:11:46;4.30;;;3.90;;
5040;SDS011;2539;52.568;13.364;2023-11-21T11:14:13;30.57;;;18.37;;
5040;SDS011;2539;52.568;13.364;2023-11-21T11:16:40;5.07;;;4.57;;
5040;SDS011;2539;52.568;13.364;2023-11-21T11:19:07;4.33;;;3.93;;
5040;SDS011;2539;52.568;13.364;2023-11-21T11:21:43;5.50;;;3.73;;
5040;SDS011;2539;52.568;13.364;2023-11-21T11:24:33;4.57;;;3.20;;
5040;SDS011;2539;52.568;13.364;2023-11-21T11:29:54;4.13;;;3.73;;
5040;SDS011;2539;52.568;13.364;2023-11-21T11:33:04;3.80;;;3.50;;
5040;SDS011;2539;52.568;13.364;2023-11-21T11:38:49;17.47;;;12.73;;
5040;SDS011;2539;52.568;13.364;2023-11-21T11:41:24;4.07;;;3.67;;
5040;SDS011;2539;52.568;13.364;2023-11-21T11:43:53;5.17;;;3.37;;
5040;SDS011;2539;52.568;13.364;2023-11-21T11:46:19;4.30;;;3.40;;
5040;SDS011;2539;52.568;13.364;2023-11-21T11:48:49;4.27;;;3.70;;
5040;SDS011;2539;52.568;13.364;2023-11-21T11:51:29;4.70;;;3.47;;
5040;SDS011;2539;52.568;13.364;2023-11-21T11:53:57;4.30;;;3.90;;
5040;SDS011;2539;52.568;13.364;2023-11-21T11:56:27;4.00;;;3.70;;
5040;SDS011;2539;52.568;13.364;2023-11-21T11:58:57;4.27;;;3.30;;
5040;SDS011;2539;52.568;13.364;2023-11-21T12:01:25;6.10;;;3.97;;
5040;SDS011;2539;52.568;13.364;2023-11-21T12:04:22;3.90;;;3.50;;
5040;SDS011;2539;52.568;13.364;2023-11-21T12:06:52;5.00;;;4.50;;
5040;SDS011;2539;52.568;13.364;2023-11-21T12:09:19;4.33;;;3.93;;
5040;SDS011;2539;52.568;13.364;2023-11-21T12:11:48;4.93;;;4.43;;
5040;SDS011;2539;52.568;13.364;2023-11-21T12:14:15;5.30;;;4.30;;
5040;SDS011;2539;52.568;13.364;2023-11-21T12:16:41;6.47;;;4.50;;
5040;SDS011;2539;52.568;13.364;2023-11-21T12:19:13;4.77;;;4.30;;
5040;SDS011;2539;52.568;13.364;2023-11-21T12:21:39;5.60;;;5.10;;
5040;SDS011;2539;52.568;13.364;2023-11-21T12:24:09;5.73;;;5.20;;
5040;SDS011;2539;52.568;13.364;2023-11-21T12:26:35;5.13;;;4.33;;
5040;SDS011;2539;52.568;13.364;2023-11-21T12:29:05;5.77;;;4.60;;
5040;SDS011;2539;52.568;13.364;2023-11-21T12:31:33;5.63;;;5.13;;
5040;SDS011;2539;52.568;13.364;2023-11-21T12:34:00;6.60;;;4.97;;
5040;SDS011;2539;52.568;13.364;2023-11-21T12:36:27;5.60;;;4.53;;
5040;SDS011;2539;52.568;13.364;2023-11-21T12:38:56;5.00;;;4.50;;
5040;SDS011;2539;52.568;13.364;2023-11-21T12:41:22;4.80;;;4.40;;
5040;SDS011;2539;52.568;13.364;2023-11-21T12:43:49;10.93;;;5.03;;
5040;SDS011;2539;52.568;13.364;2023-11-21T12:46:15;5.60;;;4.00;;
5040;SDS011;2539;52.568;13.364;2023-11-21T12:48:43;4.50;;;4.10;;
5040;SDS011;2539;52.568;13.364;2023-11-21T12:51:11;8.87;;;8.00;;
5040;SDS011;2539;52.568;13.364;2023-11-21T12:53:40;5.30;;;4.80;;
5040;SDS011;2539;52.568;13.364;2023-11-21T12:56:10;5.00;;;4.50;;
5040;SDS011;2539;52.568;13.364;2023-11-21T12:58:38;5.70;;;4.87;;
5040;SDS011;2539;52.568;13.364;2023-11-21T13:01:05;5.70;;;5.10;;
5040;SDS011;2539;52.568;13.364;2023-11-21T13:03:37;5.60;;;5.00;;
5040;SDS011;2539;52.568;13.364;2023-11-21T13:06:06;6.20;;;5.13;;
5040;SDS011;2539;52.568;13.364;2023-11-21T13:08:33;6.00;;;5.30;;
5040;SDS011;2539;52.568;13.364;2023-11-21T13:11:00;13.37;;;7.53;;
5040;SDS011;2539;52.568;13.364;2023-11-21T13:13:29;9.33;;;7.27;;
5040;SDS011;2539;52.568;13.364;2023-11-21T13:15:59;14.13;;;8.07;;
5040;SDS011;2539;52.568;13.364;2023-11-21T13:18:27;13.70;;;8.53;;
5040;SDS011;2539;52.568;13.364;2023-11-21T13:20:54;12.60;;;9.00;;
5040;SDS011;2539;52.568;13.364;2023-11-21T13:23:22;12.80;;;8.80;;
5040;SDS011;2539;52.568;13.364;2023-11-21T13:25:49;12.30;;;7.40;;
5040;SDS011;2539;52.568;13.364;2023-11-21T13:28:16;17.53;;;8.77;;
5040;SDS011;2539;52.568;13.364;2023-11-21T13:30:44;11.13;;;8.23;;
5040;SDS011;2539;52.568;13.364;2023-11-21T13:33:10;15.77;;;10.27;;
5040;SDS011;2539;52.568;13.364;2023-11-21T13:35:43;14.27;;;9.47;;
5040;SDS011;2539;52.568;13.364;2023-11-21T13:38:15;13.63;;;8.87;;
5040;SDS011;2539;52.568;13.364;2023-11-21T13:40:49;12.50;;;9.13;;
5040;SDS011;2539;52.568;13.364;2023-11-21T13:43:19;15.50;;;9.63;;
5040;SDS011;2539;52.568;13.364;2023-11-21T13:45:48;19.23;;;12.10;;
5040;SDS011;2539;52.568;13.364;2023-11-21T13:48:26;20.00;;;12.93;;
5040;SDS011;2539;52.568;13.364;2023-11-21T13:51:06;24.03;;;13.77;;
5040;SDS011;2539;52.568;13.364;2023-11-21T13:53:44;15.90;;;9.37;;
5040;SDS011;2539;52.568;13.364;2023-11-21T13:56:13;32.00;;;16.10;;
5040;SDS011;2539;52.568;13.364;2023-11-21T13:58:45;27.43;;;15.10;;
5040;SDS011;2539;52.568;13.364;2023-11-21T14:01:18;29.20;;;14.73;;
5040;SDS011;2539;52.568;13.364;2023-11-21T14:03:56;32.80;;;16.40;;
5040;SDS011;2539;52.568;13.364;2023-11-21T14:06:42;31.03;;;15.97;;
5040;SDS011;2539;52.568;13.364;2023-11-21T14:09:21;30.70;;;16.20;;
5040;SDS011;2539;52.568;13.364;2023-11-21T14:11:54;28.60;;;16.23;;
5040;SDS011;2539;52.568;13.364;2023-11-21T14:14:22;25.63;;;15.00;;
5040;SDS011;2539;52.568;13.364;2023-11-21T14:16:50;25.10;;;14.73;;
5040;SDS011;2539;52.568;13.364;2023-11-21T14:19:16;17.63;;;12.17;;
5040;SDS011;2539;52.568;13.364;2023-11-21T14:21:43;20.20;;;13.97;;
5040;SDS011;2539;52.568;13.364;2023-11-21T14:24:09;19.40;;;12.97;;
5040;SDS011;2539;52.568;13.364;2023-11-21T14:26:36;22.87;;;14.77;;
5040;SDS011;2539;52.568;13.364;2023-11-21T14:29:02;26.67;;;15.30;;
5040;SDS011;2539;52.568;13.364;2023-11-21T14:31:28;24.63;;;13.10;;
5040;SDS011;2539;52.568;13.364;2023-11-21T14:33:57;18.87;;;11.90;;
5040;SDS011;2539;52.568;13.364;2023-11-21T14:36:23;19.07;;;13.40;;
5040;SDS011;2539;52.568;13.364;2023-11-21T14:38:50;16.30;;;12.70;;
5040;SDS011;2539;52.568;13.364;2023-11-21T14:41:16;17.70;;;13.10;;
5040;SDS011;2539;52.568;13.364;2023-11-21T14:43:42;17.43;;;13.43;;
5040;SDS011;2539;52.568;13.364;2023-11-21T14:46:11;16.40;;;11.57;;
5040;SDS011;2539;52.568;13.364;2023-11-21T14:48:40;16.73;;;13.30;;
5040;SDS011;2539;52.568;13.364;2023-11-21T14:51:11;15.77;;;12.67;;
5040;SDS011;2539;52.568;13.364;2023-11-21T14:53:59;22.40;;;12.63;;
5040;SDS011;2539;52.568;13.364;2023-11-21T14:56:32;14.40;;;11.67;;
5040;SDS011;2539;52.568;13.364;2023-11-21T14:59:03;16.07;;;13.10;;
5040;SDS011;2539;52.568;13.364;2023-11-21T15:01:38;16.37;;;13.33;;
5040;SDS011;2539;52.568;13.364;2023-11-21T15:04:19;14.70;;;11.80;;